Time;durP1;ratioP1;P1;durP2;ratioP2;P2;SDS_P1;SDS_P2;PMS_P1;PMS_P2;Temp;Humidity;BMP_temperature;BMP_pressure;BME280_temperature;BME280_humidity;BME280_pressure;Samples;Min_cycle;Max_cycle;Signal;HPM_P1;HPM_P2
2020/12/30 00:00:37;;;;;;;5.88;2.95;;;;;;;3.99;100.00;98729.84;5072627;28;20066;-67
2020/12/30 00:03:22;;;;;;;4.35;3.05;;;;;;;3.99;100.00;98733.31;5072125;28;20094;-68
2020/12/30 00:06:05;;;;;;;5.07;3.05;;;;;;;4.01;100.00;98728.72;5056764;28;20471;-68
2020/12/30 00:08:49;;;;;;;6.93;2.80;;;;;;;4.05;100.00;98732.75;5072350;28;20047;-68
2020/12/30 00:11:33;;;;;;;5.65;2.80;;;;;;;4.06;100.00;98736.22;5071239;28;20047;-68
2020/12/30 00:14:17;;;;;;;4.15;3.35;;;;;;;4.05;100.00;98735.38;5072247;28;20059;-67
2020/12/30 00:17:03;;;;;;;5.50;2.60;;;;;;;4.02;100.00;98735.66;5056636;28;20125;-67
2020/12/30 00:19:46;;;;;;;6.00;2.30;;;;;;;4.02;100.00;98742.72;5071061;28;20094;-68
2020/12/30 00:22:30;;;;;;;11.27;2.72;;;;;;;4.03;100.00;98744.41;5071415;28;20051;-65
2020/12/30 00:25:17;;;;;;;6.00;2.20;;;;;;;3.99;100.00;98735.97;5071992;28;20563;-68
2020/12/30 00:28:02;;;;;;;5.50;2.50;;;;;;;3.99;100.00;98745.66;5071072;28;20044;-68
2020/12/30 00:30:46;;;;;;;3.97;2.25;;;;;;;3.96;100.00;98746.75;5071074;28;20051;-68
2020/12/30 00:33:30;;;;;;;2.58;1.90;;;;;;;3.98;100.00;98738.72;5074842;28;20495;-68
2020/12/30 00:36:14;;;;;;;3.78;1.95;;;;;;;3.95;100.00;98749.56;5074324;28;20051;-67
2020/12/30 00:38:58;;;;;;;5.05;2.00;;;;;;;3.98;100.00;98751.91;5074753;28;20067;-68
2020/12/30 00:41:41;;;;;;;5.30;2.28;;;;;;;3.99;100.00;98751.78;5075719;28;20059;-68
2020/12/30 00:44:26;;;;;;;4.53;2.22;;;;;;;3.99;100.00;98753.56;5074641;28;20074;-68
2020/12/30 00:47:10;;;;;;;7.68;2.30;;;;;;;3.98;100.00;98750.09;5075341;28;20044;-67
2020/12/30 00:49:54;;;;;;;4.45;2.08;;;;;;;3.99;100.00;98761.47;5075708;28;20063;-68
2020/12/30 00:52:38;;;;;;;6.15;2.30;;;;;;;3.98;100.00;98758.00;5074461;28;20047;-68
2020/12/30 00:55:22;;;;;;;3.28;2.15;;;;;;;3.97;100.00;98758.16;5074408;28;20097;-68
2020/12/30 00:58:05;;;;;;;3.42;2.20;;;;;;;3.96;100.00;98764.41;5074568;28;20570;-68
2020/12/30 01:00:49;;;;;;;3.53;2.28;;;;;;;4.03;100.00;98765.50;5075424;28;20047;-66
2020/12/30 01:03:38;;;;;;;2.42;1.83;;;;;;;4.01;100.00;98775.34;5075097;28;20550;-68
2020/12/30 01:06:22;;;;;;;5.07;2.30;;;;;;;4.02;100.00;98771.72;5074970;28;20048;-68
2020/12/30 01:09:06;;;;;;;4.45;2.15;;;;;;;4.01;100.00;98777.97;5060270;28;20616;-68
2020/12/30 01:11:50;;;;;;;4.03;2.22;;;;;;;4.01;100.00;98785.91;5074145;28;20576;-68
2020/12/30 01:14:35;;;;;;;4.00;2.03;;;;;;;4.04;100.00;98785.63;5060005;28;20048;-68
2020/12/30 01:17:18;;;;;;;3.13;2.03;;;;;;;4.09;100.00;98778.13;5073917;28;20055;-67
2020/12/30 01:20:03;;;;;;;5.53;2.42;;;;;;;4.14;100.00;98787.28;5074001;28;20511;-68
2020/12/30 01:22:47;;;;;;;6.32;2.50;;;;;;;4.20;100.00;98789.38;5073930;28;20093;-68
2020/12/30 01:25:31;;;;;;;3.95;2.22;;;;;;;4.31;100.00;98793.66;5073600;28;20048;-68
2020/12/30 01:28:16;;;;;;;3.40;2.40;;;;;;;4.34;100.00;98799.47;5073620;28;20074;-68
2020/12/30 01:31:00;;;;;;;5.38;2.70;;;;;;;4.34;100.00;98798.63;5073521;28;20409;-68
2020/12/30 01:33:44;;;;;;;3.83;2.30;;;;;;;4.36;100.00;98802.00;5073510;28;20047;-68
2020/12/30 01:36:27;;;;;;;3.88;2.40;;;;;;;4.42;100.00;98804.03;5074434;28;20052;-68
2020/12/30 01:39:11;;;;;;;4.07;2.00;;;;;;;4.45;100.00;98809.06;5073627;28;20052;-68
2020/12/30 01:41:58;;;;;;;5.20;2.08;;;;;;;4.51;100.00;98808.47;5073519;28;20465;-68
2020/12/30 01:44:42;;;;;;;4.13;1.92;;;;;;;4.56;100.00;98808.91;5072676;28;20043;-68
2020/12/30 01:47:28;;;;;;;3.75;2.10;;;;;;;4.59;100.00;98803.34;5073509;28;20052;-67
2020/12/30 01:50:14;;;;;;;4.13;2.03;;;;;;;4.55;100.00;98807.22;5073451;28;20519;-68
2020/12/30 01:52:59;;;;;;;4.35;2.08;;;;;;;4.51;100.00;98811.13;5073390;28;20052;-68
2020/12/30 01:55:43;;;;;;;3.15;1.92;;;;;;;4.49;100.00;98811.25;5074044;28;20051;-68
2020/12/30 01:58:28;;;;;;;5.80;1.65;;;;;;;4.57;100.00;98815.84;5074370;28;20638;-68
2020/12/30 02:01:13;;;;;;;;;;;;;;;4.54;100.00;98816.09;5073697;28;20093;-68
2020/12/30 02:03:57;;;;;;;6.63;2.03;;;;;;;4.56;100.00;98819.47;5074057;28;19919;-68
2020/12/30 02:06:42;;;;;;;3.05;1.60;;;;;;;4.63;100.00;98820.53;5093965;22;20113;-71
2020/12/30 02:09:26;;;;;;;5.53;2.40;;;;;;;4.62;100.00;98826.78;5074130;28;20044;-70
2020/12/30 02:12:10;;;;;;;;;;;;;;;4.65;100.00;98835.25;5073211;28;20185;-71
2020/12/30 02:14:54;;;;;;;1.88;1.40;;;;;;;4.66;100.00;98833.47;5058752;28;19957;-70
2020/12/30 02:17:38;;;;;;;3.22;1.88;;;;;;;4.68;100.00;98828.88;5073638;28;20051;-70
2020/12/30 02:20:22;;;;;;;3.45;1.70;;;;;;;4.72;100.00;98836.38;5074042;28;20527;-70
2020/12/30 02:23:11;;;;;;;2.45;1.63;;;;;;;4.71;100.00;98833.88;5072620;28;20055;-70
2020/12/30 02:25:55;;;;;;;4.63;2.00;;;;;;;4.67;100.00;98837.78;5072837;28;20074;-71
2020/12/30 02:28:39;;;;;;;3.60;1.67;;;;;;;4.67;100.00;98833.31;5072672;28;20496;-71
2020/12/30 02:31:23;;;;;;;2.55;1.77;;;;;;;4.72;100.00;98833.72;5072910;28;20078;-71
2020/12/30 02:34:07;;;;;;;2.83;1.95;;;;;;;4.71;100.00;98839.13;5072581;28;20063;-71
2020/12/30 02:36:51;;;;;;;4.07;1.67;;;;;;;4.70;100.00;98840.13;5073351;28;20047;-70
2020/12/30 02:39:35;;;;;;;6.63;1.90;;;;;;;4.69;100.00;98846.38;5072503;28;20417;-70
2020/12/30 02:42:20;;;;;;;3.22;1.83;;;;;;;4.73;100.00;98845.94;5073605;28;20071;-71
2020/12/30 02:45:06;;;;;;;3.17;1.83;;;;;;;4.73;100.00;98853.88;5073450;28;20052;-71
2020/12/30 02:47:51;;;;;;;3.92;1.52;;;;;;;4.69;100.00;98849.00;5072174;28;20059;-71
2020/12/30 02:50:35;;;;;;;3.25;2.00;;;;;;;4.68;100.00;98858.72;5072335;28;20097;-71
2020/12/30 02:53:20;;;;;;;2.45;1.30;;;;;;;4.67;100.00;98853.59;5073312;28;20043;-71
2020/12/30 02:56:04;;;;;;;2.67;1.50;;;;;;;4.69;100.00;98851.66;5072328;28;20131;-71
2020/12/30 02:58:49;;;;;;;3.15;1.73;;;;;;;4.68;100.00;98860.53;5073564;28;20074;-71
2020/12/30 03:01:33;;;;;;;3.25;1.48;;;;;;;4.69;100.00;98867.50;5073148;28;20051;-71
2020/12/30 03:04:17;;;;;;;3.83;1.90;;;;;;;4.67;100.00;98859.69;5072896;28;20051;-71
2020/12/30 03:07:02;;;;;;;;;;;;;;;4.65;100.00;98863.44;5058287;28;20091;-70
2020/12/30 03:09:46;;;;;;;5.53;1.92;;;;;;;4.63;100.00;98858.31;5072885;28;19919;-70
2020/12/30 03:12:30;;;;;;;6.68;2.47;;;;;;;4.53;100.00;98856.66;5072937;28;20086;-71
2020/12/30 03:15:14;;;;;;;2.50;1.60;;;;;;;4.50;100.00;98862.22;5071964;28;20417;-71
2020/12/30 03:17:57;;;;;;;2.97;1.83;;;;;;;4.44;100.00;98870.69;5071547;28;20051;-71
2020/12/30 03:20:41;;;;;;;4.13;1.85;;;;;;;4.43;100.00;98864.59;5071622;28;20177;-71
2020/12/30 03:23:25;;;;;;;5.78;1.80;;;;;;;4.39;100.00;98865.81;5071877;28;20397;-70
2020/12/30 03:26:09;;;;;;;3.38;2.10;;;;;;;4.42;100.00;98875.28;5071517;28;20475;-71
2020/12/30 03:28:53;;;;;;;2.90;1.70;;;;;;;4.40;100.00;98882.50;5072878;28;20416;-71
2020/12/30 03:31:37;;;;;;;5.05;1.80;;;;;;;4.39;100.00;98880.84;5072602;28;20122;-70
2020/12/30 03:34:21;;;;;;;4.53;1.67;;;;;;;4.42;100.00;98883.19;5071482;28;20051;-70
2020/12/30 03:37:05;;;;;;;;;;;;;;;4.43;100.00;98874.31;5057572;28;20052;-70
2020/12/30 03:39:49;;;;;;;4.80;1.80;;;;;;;4.41;100.00;98882.38;5072497;28;19934;-71
2020/12/30 03:42:33;;;;;;;2.33;1.58;;;;;;;4.42;100.00;98881.41;5072712;28;20516;-70
2020/12/30 03:45:18;;;;;;;4.70;1.60;;;;;;;4.41;100.00;98873.63;5071346;28;20055;-71
2020/12/30 03:48:02;;;;;;;5.28;1.73;;;;;;;4.35;100.00;98882.09;5072335;28;20047;-71
2020/12/30 03:50:46;;;;;;;2.90;1.65;;;;;;;4.34;100.00;98881.25;5071571;28;20055;-70
2020/12/30 03:53:30;;;;;;;2.58;1.48;;;;;;;4.34;100.00;98883.03;5057352;28;20101;-70
2020/12/30 03:56:13;;;;;;;2.80;1.83;;;;;;;4.30;100.00;98881.66;5071119;28;20051;-71
2020/12/30 03:58:57;;;;;;;5.38;1.75;;;;;;;4.32;100.00;98890.28;5071731;28;20109;-71
2020/12/30 04:01:41;;;;;;;5.55;1.95;;;;;;;4.25;100.00;98883.91;5071327;28;20078;-70
2020/12/30 04:04:26;;;;;;;3.45;1.90;;;;;;;4.29;100.00;98885.28;5072288;28;20507;-71
2020/12/30 04:07:11;;;;;;;4.82;1.75;;;;;;;4.25;100.00;98879.44;5074183;28;20044;-70
2020/12/30 04:09:55;;;;;;;4.72;2.20;;;;;;;4.22;100.00;98885.00;5075318;28;20097;-71
2020/12/30 04:12:39;;;;;;;3.25;1.63;;;;;;;4.14;100.00;98889.28;5076319;28;20093;-71
2020/12/30 04:15:23;;;;;;;4.45;1.92;;;;;;;4.15;100.00;98888.34;5075341;28;20055;-71
2020/12/30 04:18:07;;;;;;;4.72;1.83;;;;;;;4.19;100.00;98895.00;5060689;28;20052;-71
2020/12/30 04:20:51;;;;;;;4.28;1.80;;;;;;;4.23;100.00;98893.72;5075210;28;20109;-70
2020/12/30 04:23:35;;;;;;;3.00;1.70;;;;;;;4.27;100.00;98900.41;5075143;28;20098;-71
2020/12/30 04:26:20;;;;;;;2.20;1.55;;;;;;;4.25;100.00;98905.81;5075955;28;20094;-71
2020/12/30 04:29:04;;;;;;;6.68;2.00;;;;;;;4.30;100.00;98913.31;5074759;28;20425;-70
2020/12/30 04:31:48;;;;;;;4.82;1.77;;;;;;;4.32;100.00;98914.00;5074932;28;20561;-71
2020/12/30 04:34:32;;;;;;;2.75;1.92;;;;;;;4.38;100.00;98908.19;5075704;28;20190;-71
2020/12/30 04:37:16;;;;;;;6.15;2.30;;;;;;;4.36;100.00;98907.50;5074716;28;20151;-71
2020/12/30 04:40:00;;;;;;;3.65;2.10;;;;;;;4.36;100.00;98918.06;5075874;28;20097;-71
2020/12/30 04:42:46;;;;;;;3.38;2.03;;;;;;;4.38;100.00;98916.13;5075791;28;20098;-71
2020/12/30 04:45:30;;;;;;;4.28;1.73;;;;;;;4.37;100.00;98919.72;5074962;28;20067;-71
2020/12/30 04:48:15;;;;;;;5.70;1.58;;;;;;;4.41;100.00;98916.69;5074880;28;20542;-71
2020/12/30 04:51:00;;;;;;;6.30;2.35;;;;;;;4.45;100.00;98917.25;5075427;28;20043;-70
2020/12/30 04:53:45;;;;;;;5.53;2.05;;;;;;;4.43;100.00;98919.16;5074561;28;20086;-71
2020/12/30 04:56:41;;;;;;;4.65;2.35;;;;;;;4.41;100.00;98915.81;5074313;28;20066;-71
2020/12/30 04:59:32;;;;;;;3.33;1.83;;;;;;;4.41;100.00;98926.38;5074498;28;20079;-71
2020/12/30 05:02:22;;;;;;;6.13;2.88;;;;;;;4.40;100.00;98927.34;5074181;28;20043;-71
2020/12/30 05:05:07;;;;;;;7.15;2.05;;;;;;;4.46;100.00;98926.81;5074301;28;20138;-71
2020/12/30 05:07:52;;;;;;;4.43;2.05;;;;;;;4.49;100.00;98918.63;5074907;28;20047;-71
2020/12/30 05:10:42;;;;;;;5.68;2.03;;;;;;;4.44;100.00;98926.94;5074263;28;20063;-71
2020/12/30 05:13:26;;;;;;;5.93;2.47;;;;;;;4.41;100.00;98927.22;5059867;28;20424;-71
2020/12/30 05:16:10;;;;;;;4.57;2.15;;;;;;;4.43;100.00;98929.72;5060068;28;20098;-70
2020/12/30 05:19:03;;;;;;;6.63;2.20;;;;;;;4.39;100.00;98939.69;5073963;28;20047;-71
2020/12/30 05:21:47;;;;;;;5.15;1.88;;;;;;;4.36;100.00;98945.25;5075116;28;20511;-71
2020/12/30 05:24:32;;;;;;;7.15;2.00;;;;;;;4.30;100.00;98945.81;5073997;28;20119;-71
2020/12/30 05:27:18;;;;;;;5.60;2.00;;;;;;;4.29;100.00;98953.88;5073782;28;20464;-71
2020/12/30 05:30:03;;;;;;;4.32;2.15;;;;;;;4.27;100.00;98951.34;5073845;28;20056;-71
2020/12/30 05:32:53;;;;;;;5.30;2.40;;;;;;;4.22;100.00;98961.50;5073900;28;20571;-71
2020/12/30 05:35:37;;;;;;;6.80;2.47;;;;;;;4.26;100.00;98965.50;5073615;28;20448;-71
2020/12/30 05:38:27;;;;;;;;;;;;;;;4.27;100.00;98966.38;5074122;28;20050;-71
2020/12/30 05:41:19;;;;;;;7.35;1.95;;;;;;;4.30;100.00;98977.47;5074507;28;19919;-71
2020/12/30 05:44:17;;;;;;;5.00;2.17;;;;;;;4.30;100.00;98966.94;5073386;28;20105;-71
2020/12/30 05:47:19;;;;;;;4.13;1.98;;;;;;;4.34;100.00;98967.47;5073196;28;20043;-69
2020/12/30 05:50:04;;;;;;;5.57;2.35;;;;;;;4.34;100.00;98973.59;5074527;28;20054;-71
2020/12/30 05:52:49;;;;;;;3.95;1.90;;;;;;;4.34;100.00;98967.47;5073514;28;20404;-71
2020/12/30 05:55:33;;;;;;;5.95;2.20;;;;;;;4.30;100.00;98972.22;5073227;28;20052;-71
2020/12/30 05:58:18;;;;;;;3.67;1.77;;;;;;;4.29;100.00;98973.16;5074292;28;20182;-71
2020/12/30 06:01:22;;;;;;;6.72;2.60;;;;;;;4.28;100.00;98981.22;5073379;28;20512;-71
2020/12/30 06:04:19;;;;;;;4.28;2.40;;;;;;;4.25;100.00;98984.13;5074205;28;20128;-70
2020/12/30 06:07:04;;;;;;;4.88;2.35;;;;;;;4.22;100.00;98973.84;5073971;28;20064;-71
2020/12/30 06:09:50;;;;;;;3.47;2.17;;;;;;;4.26;100.00;98988.44;5074133;28;20504;-71
2020/12/30 06:12:41;;;;;;;4.35;2.35;;;;;;;4.16;100.00;99001.59;5073127;28;20158;-71
2020/12/30 06:15:32;;;;;;;4.00;2.30;;;;;;;4.15;100.00;99001.75;5074352;28;20047;-70
2020/12/30 06:18:20;;;;;;;3.78;2.20;;;;;;;4.13;100.00;99004.50;5073685;28;20118;-71
2020/12/30 06:21:06;;;;;;;5.78;2.05;;;;;;;4.15;100.00;99002.56;5074172;28;20064;-71
2020/12/30 06:23:56;;;;;;;4.85;2.20;;;;;;;4.15;100.00;99004.38;5058490;28;20507;-71
2020/12/30 06:26:41;;;;;;;5.10;2.17;;;;;;;4.19;100.00;99005.75;5072771;28;20116;-70
2020/12/30 06:29:26;;;;;;;4.45;2.47;;;;;;;4.15;100.00;99010.47;5072397;28;20097;-71
2020/12/30 06:32:10;;;;;;;3.50;2.25;;;;;;;4.15;100.00;99014.94;5073487;28;20050;-70
2020/12/30 06:34:55;;;;;;;4.07;2.60;;;;;;;4.15;100.00;99009.66;5073509;28;20051;-71
2020/12/30 06:37:41;;;;;;;4.55;2.15;;;;;;;4.13;100.00;99028.22;5072419;28;20054;-71
2020/12/30 06:40:27;;;;;;;5.30;2.28;;;;;;;4.13;100.00;99030.03;5072603;28;20516;-71
2020/12/30 06:43:12;;;;;;;5.07;2.10;;;;;;;4.12;100.00;99036.25;5072502;28;20486;-70
2020/12/30 06:45:56;;;;;;;;;;;;;;;4.07;100.00;99031.41;5058655;28;20113;-71
2020/12/30 06:48:53;;;;;;;5.68;2.30;;;;;;;4.05;100.00;99040.44;5073161;28;19966;-70
2020/12/30 06:51:38;;;;;;;4.55;2.70;;;;;;;3.98;100.00;99040.09;5073516;28;20047;-71
2020/12/30 06:54:46;;;;;;;5.03;2.55;;;;;;;3.96;100.00;99046.50;5072626;28;20050;-71
2020/12/30 06:57:38;;;;;;;4.60;2.85;;;;;;;3.95;100.00;99047.47;5071814;28;20038;-71
2020/12/30 07:00:31;;;;;;;6.28;2.80;;;;;;;3.91;100.00;99053.94;5072186;28;20098;-70
2020/12/30 07:03:17;;;;;;;6.53;2.90;;;;;;;3.88;100.00;99054.22;5073356;28;20135;-71
2020/12/30 07:06:35;;;;;;;5.70;2.88;;;;;;;3.80;100.00;99056.66;5071628;28;20054;-71
2020/12/30 07:09:32;;;;;;;6.38;2.95;;;;;;;3.75;100.00;99059.69;5073043;28;20412;-70
2020/12/30 07:12:16;;;;;;;5.45;3.17;;;;;;;3.75;100.00;99064.97;5073037;28;20086;-71
2020/12/30 07:15:03;;;;;;;5.10;3.15;;;;;;;3.79;100.00;99065.53;5072954;28;20125;-71
2020/12/30 07:17:47;;;;;;;4.90;2.80;;;;;;;3.78;100.00;99075.28;5072848;28;20511;-71
2020/12/30 07:20:41;;;;;;;6.07;2.97;;;;;;;3.78;100.00;99069.16;5072779;28;20437;-72
2020/12/30 07:23:25;;;;;;;6.35;3.83;;;;;;;3.78;100.00;99071.78;5072947;28;20158;-71
2020/12/30 07:26:16;;;;;;;6.68;2.90;;;;;;;3.74;100.00;99073.03;5071561;28;20051;-72
2020/12/30 07:29:01;;;;;;;5.93;3.08;;;;;;;3.69;100.00;99078.69;5071753;28;20086;-72
2020/12/30 07:31:58;;;;;;;8.48;3.28;;;;;;;3.63;100.00;99086.25;5072658;28;20052;-72
2020/12/30 07:34:49;;;;;;;5.22;3.30;;;;;;;3.58;100.00;99083.19;5072694;28;20063;-71
2020/12/30 07:37:33;;;;;;;7.35;3.78;;;;;;;3.56;100.00;99095.66;5057414;28;20063;-71
2020/12/30 07:40:17;;;;;;;8.15;3.17;;;;;;;3.60;100.00;99097.06;5072379;28;20602;-71
2020/12/30 07:43:01;;;;;;;5.93;2.90;;;;;;;3.60;100.00;99102.31;5071085;28;20047;-71
2020/12/30 07:45:45;;;;;;;4.88;3.00;;;;;;;3.62;100.00;99110.94;5072676;28;20114;-71
2020/12/30 07:48:29;;;;;;;5.80;3.22;;;;;;;3.66;100.00;99101.81;5072361;28;20130;-70
2020/12/30 07:51:14;;;;;;;;;;;;;;;3.73;100.00;99108.22;5073206;28;20527;-71
2020/12/30 07:53:57;;;;;;;4.72;2.38;;;;;;;3.79;100.00;99115.63;5072279;28;19923;-70
2020/12/30 07:56:42;;;;;;;5.72;2.88;;;;;;;3.84;100.00;99116.91;5072220;28;20078;-71
2020/12/30 07:59:26;;;;;;;5.15;2.60;;;;;;;3.90;100.00;99126.09;5071352;28;20047;-71
2020/12/30 08:02:12;;;;;;;5.68;2.67;;;;;;;3.91;100.00;99127.75;5071189;28;20118;-70
2020/12/30 08:05:00;;;;;;;4.32;2.88;;;;;;;3.96;100.00;99126.41;5071239;28;20052;-71
2020/12/30 08:07:44;;;;;;;7.60;2.80;;;;;;;4.02;100.00;99138.22;5057950;28;20051;-71
2020/12/30 08:10:28;;;;;;;6.15;2.65;;;;;;;4.02;100.00;99146.13;5072542;28;20504;-70
2020/12/30 08:13:12;;;;;;;5.72;2.28;;;;;;;4.07;100.00;99149.25;5071914;28;20044;-70
2020/12/30 08:15:56;;;;;;;10.88;2.40;;;;;;;4.06;100.00;99148.38;5072081;28;20052;-71
2020/12/30 08:18:52;;;;;;;4.22;2.45;;;;;;;4.07;100.00;99155.34;5072065;28;20047;-70
2020/12/30 08:21:36;;;;;;;3.67;2.30;;;;;;;4.12;100.00;99162.84;5070980;28;20047;-70
2020/12/30 08:24:20;;;;;;;3.47;2.35;;;;;;;4.11;100.00;99155.91;5070989;28;20404;-69
2020/12/30 08:27:05;;;;;;;5.28;2.00;;;;;;;4.04;100.00;99171.41;5071992;28;20133;-71
2020/12/30 08:29:50;;;;;;;3.50;1.55;;;;;;;4.03;100.00;99174.19;5070964;28;20085;-71
2020/12/30 08:32:34;;;;;;;3.58;1.95;;;;;;;3.99;100.00;99178.06;5070928;28;20562;-70
2020/12/30 08:35:28;;;;;;;4.93;1.83;;;;;;;3.95;100.00;99185.38;5071887;28;20098;-70
2020/12/30 08:38:15;;;;;;;;;;;;;;;3.94;100.00;99188.16;5072195;28;20098;-70
2020/12/30 08:41:05;;;;;;;4.70;2.30;;;;;;;3.98;100.00;99186.94;5071903;28;19965;-71
2020/12/30 08:43:49;;;;;;;5.80;2.55;;;;;;;4.00;100.00;99192.91;5070767;28;20405;-70
2020/12/30 08:46:34;;;;;;;7.93;3.28;;;;;;;4.01;100.00;99191.94;5070849;28;20181;-70
2020/12/30 08:49:19;;;;;;;3.47;2.40;;;;;;;3.99;100.00;99193.88;5070841;28;20067;-69
2020/12/30 08:52:20;;;;;;;7.18;2.72;;;;;;;4.03;100.00;99201.41;5071866;28;20062;-69
2020/12/30 08:55:04;;;;;;;5.55;2.78;;;;;;;4.04;100.00;99208.34;5074513;28;20086;-69
2020/12/30 08:57:49;;;;;;;5.57;2.83;;;;;;;4.13;100.00;99204.09;5059942;28;20153;-69
2020/12/30 09:00:35;;;;;;;4.78;2.75;;;;;;;4.15;100.00;99207.44;5075712;28;20046;-69
2020/12/30 09:03:24;;;;;;;3.60;2.47;;;;;;;4.19;100.00;99211.50;5075172;28;20109;-69
2020/12/30 09:06:09;;;;;;;6.88;2.50;;;;;;;4.26;100.00;99207.38;5074086;28;20043;-68
2020/12/30 09:08:54;;;;;;;5.47;2.70;;;;;;;4.28;100.00;99208.88;5059955;28;20093;-69
2020/12/30 09:11:44;;;;;;;6.07;2.67;;;;;;;4.27;100.00;99220.41;5074950;28;20059;-69
2020/12/30 09:14:28;;;;;;;7.13;3.10;;;;;;;4.30;100.00;99214.03;5075458;28;20051;-68
2020/12/30 09:17:15;;;;;;;5.00;2.55;;;;;;;4.38;100.00;99222.16;5073740;28;20063;-68
2020/12/30 09:20:12;;;;;;;4.18;2.40;;;;;;;4.48;100.00;99223.03;5074830;28;20070;-69
2020/12/30 09:23:01;;;;;;;5.47;2.60;;;;;;;4.54;100.00;99222.50;5075170;28;20121;-69
2020/12/30 09:25:45;;;;;;;8.43;2.72;;;;;;;4.53;100.00;99221.69;5073762;28;20105;-69
2020/12/30 09:28:34;;;;;;;5.82;3.58;;;;;;;4.61;100.00;99223.66;5073984;28;20055;-68
2020/12/30 09:31:18;;;;;;;8.30;2.40;;;;;;;4.57;100.00;99227.53;5073599;28;20474;-68
2020/12/30 09:34:02;;;;;;;;;;;;;;;4.60;100.00;99232.53;5074099;28;20413;-69
2020/12/30 09:36:56;;;;;;;3.92;2.28;;;;;;;4.54;100.00;99239.19;5074669;28;19923;-69
2020/12/30 09:39:40;;;;;;;5.55;3.28;;;;;;;4.51;100.00;99235.97;5074507;28;20098;-69
2020/12/30 09:42:24;;;;;;;6.25;3.92;;;;;;;4.51;100.00;99244.72;5073662;28;20128;-69
2020/12/30 09:45:10;;;;;;;5.65;2.85;;;;;;;4.51;100.00;99243.88;5073562;28;20139;-69
2020/12/30 09:48:07;;;;;;;7.57;2.90;;;;;;;4.61;100.00;99250.03;5073363;28;20048;-69
2020/12/30 09:50:52;;;;;;;4.80;3.05;;;;;;;4.68;100.00;99251.19;5073721;28;20508;-69
2020/12/30 09:53:36;;;;;;;7.25;3.40;;;;;;;4.79;100.00;99259.03;5073337;28;20091;-69
2020/12/30 09:56:20;;;;;;;5.80;3.20;;;;;;;4.74;100.00;99255.94;5074376;28;20459;-68
2020/12/30 09:59:04;;;;;;;8.18;3.35;;;;;;;4.83;100.00;99260.41;5059157;28;20388;-69
2020/12/30 10:01:48;;;;;;;5.35;3.10;;;;;;;4.76;100.00;99262.75;5072962;28;20098;-69
2020/12/30 10:04:33;;;;;;;7.13;3.15;;;;;;;4.87;100.00;99261.84;5073442;28;20047;-69
2020/12/30 10:07:17;;;;;;;8.07;3.42;;;;;;;4.89;100.00;99260.72;5074163;28;20043;-69
2020/12/30 10:10:01;;;;;;;8.95;3.47;;;;;;;4.96;100.00;99275.06;5074076;28;20127;-69
2020/12/30 10:12:46;;;;;;;9.13;3.53;;;;;;;4.94;100.00;99269.91;5074087;28;20051;-69
2020/12/30 10:15:30;;;;;;;11.35;3.55;;;;;;;4.97;100.00;99270.66;5073033;28;20055;-69
2020/12/30 10:18:13;;;;;;;8.07;3.20;;;;;;;5.02;100.00;99275.38;5072742;28;20555;-68
2020/12/30 10:20:58;;;;;;;7.85;3.30;;;;;;;5.00;100.00;99289.69;5072348;28;20135;-68
2020/12/30 10:23:42;;;;;;;;;;;;;;;4.98;100.00;99273.97;5074289;28;20420;-69
2020/12/30 10:26:26;;;;;;;5.43;2.90;;;;;;;4.84;100.00;99278.78;5058463;28;19924;-69
2020/12/30 10:29:10;;;;;;;6.20;3.03;;;;;;;4.78;100.00;99273.19;5072882;28;20059;-68
2020/12/30 10:31:55;;;;;;;8.43;3.63;;;;;;;4.77;100.00;99277.63;5072607;28;20106;-69
2020/12/30 10:34:40;;;;;;;3.90;2.53;;;;;;;4.74;100.00;99272.63;5072427;28;20074;-69
2020/12/30 10:37:23;;;;;;;8.27;3.25;;;;;;;4.93;100.00;99268.25;5072166;28;20063;-69
2020/12/30 10:40:07;;;;;;;7.65;3.40;;;;;;;5.05;100.00;99272.47;5073384;28;20055;-69
2020/12/30 10:42:51;;;;;;;4.05;3.10;;;;;;;5.37;100.00;99269.66;5072286;28;20047;-69
2020/12/30 10:45:35;;;;;;;4.80;2.42;;;;;;;5.57;100.00;99268.72;5072291;28;20091;-69
2020/12/30 10:48:19;;;;;;;6.05;3.10;;;;;;;5.42;100.00;99276.19;5072277;28;20111;-69
2020/12/30 10:51:03;;;;;;;5.47;2.42;;;;;;;5.22;100.00;99279.75;5071955;28;20047;-69
2020/12/30 10:53:47;;;;;;;4.43;2.85;;;;;;;5.08;100.00;99277.50;5073329;28;20109;-69
2020/12/30 10:56:31;;;;;;;5.65;3.30;;;;;;;5.09;100.00;99284.44;5072871;28;20138;-69
2020/12/30 10:59:16;;;;;;;4.50;2.75;;;;;;;5.00;100.00;99279.97;5057767;28;20413;-69
2020/12/30 11:02:01;;;;;;;7.22;3.22;;;;;;;5.01;100.00;99275.53;5072907;28;20048;-69
2020/12/30 11:04:45;;;;;;;4.90;3.05;;;;;;;5.02;100.00;99280.66;5072925;28;20121;-69
2020/12/30 11:07:30;;;;;;;5.45;3.10;;;;;;;4.97;100.00;99285.53;5071981;28;20117;-69
2020/12/30 11:10:14;;;;;;;5.78;3.10;;;;;;;4.95;100.00;99282.16;5073108;28;20055;-69
2020/12/30 11:12:58;;;;;;;7.47;3.25;;;;;;;4.99;100.00;99280.94;5057949;28;20135;-69
2020/12/30 11:15:41;;;;;;;5.47;3.20;;;;;;;4.97;100.00;99287.31;5071356;28;20560;-69
2020/12/30 11:18:25;;;;;;;;;;;;;;;4.98;100.00;99287.19;5073157;28;20428;-69
2020/12/30 11:21:10;;;;;;;6.30;3.17;;;;;;;5.02;100.00;99287.75;5073215;28;19919;-69
2020/12/30 11:23:53;;;;;;;6.25;3.20;;;;;;;5.01;100.00;99286.91;5071887;28;20130;-69
2020/12/30 11:26:37;;;;;;;9.05;3.55;;;;;;;5.12;100.00;99289.47;5072659;28;20047;-69
2020/12/30 11:29:21;;;;;;;4.05;3.33;;;;;;;5.11;100.00;99287.78;5072870;28;20515;-69
2020/12/30 11:32:06;;;;;;;6.40;3.50;;;;;;;5.26;100.00;99290.91;5071611;28;20050;-68
2020/12/30 11:34:49;;;;;;;7.93;3.10;;;;;;;5.32;100.00;99291.19;5071654;28;20047;-70
2020/12/30 11:37:34;;;;;;;6.80;2.97;;;;;;;5.18;100.00;99296.84;5072596;28;20078;-69
2020/12/30 11:40:20;;;;;;;6.70;3.50;;;;;;;5.37;100.00;99293.44;5072603;28;20113;-69
2020/12/30 11:43:04;;;;;;;4.72;2.85;;;;;;;5.46;100.00;99288.16;5071472;28;20067;-69
2020/12/30 11:45:48;;;;;;;5.63;3.08;;;;;;;5.34;100.00;99294.53;5072416;28;20142;-70
2020/12/30 11:48:32;;;;;;;6.75;2.78;;;;;;;5.26;100.00;99291.75;5072521;28;20393;-69
2020/12/30 11:51:16;;;;;;;6.20;3.22;;;;;;;5.34;100.00;99294.53;5072520;28;20520;-70
2020/12/30 11:54:00;;;;;;;7.32;3.70;;;;;;;5.32;100.00;99291.19;5072424;28;20048;-70
2020/12/30 11:56:44;;;;;;;5.28;3.97;;;;;;;5.45;100.00;99302.34;5072440;28;20051;-69
2020/12/30 11:59:28;;;;;;;10.05;3.47;;;;;;;5.44;100.00;99300.69;5071311;28;20102;-70
2020/12/30 12:02:12;;;;;;;6.03;3.47;;;;;;;5.42;100.00;99301.81;5072247;28;20055;-70
2020/12/30 12:04:58;;;;;;;6.45;3.22;;;;;;;5.35;100.00;99300.66;5071257;28;20075;-69
2020/12/30 12:07:42;;;;;;;8.98;3.85;;;;;;;5.29;100.00;99302.03;5072006;28;20044;-70
2020/12/30 12:10:27;;;;;;;7.43;3.97;;;;;;;5.38;100.00;99301.22;5071386;28;20050;-70
2020/12/30 12:13:10;;;;;;;5.70;3.80;;;;;;;5.38;100.00;99311.81;5071340;28;20052;-70
2020/12/30 12:15:54;;;;;;;5.88;3.70;;;;;;;5.44;100.00;99300.69;5071098;28;20137;-70
2020/12/30 12:18:39;;;;;;;6.53;3.63;;;;;;;5.49;100.00;99302.91;5072303;28;20130;-70
2020/12/30 12:21:23;;;;;;;6.20;3.97;;;;;;;5.47;100.00;99305.72;5071023;28;20117;-70
2020/12/30 12:24:06;;;;;;;;;;;;;;;5.51;100.00;99296.53;5071949;28;20055;-70
2020/12/30 12:26:50;;;;;;;5.45;4.00;;;;;;;5.51;100.00;99306.25;5072277;28;19999;-70
2020/12/30 12:29:34;;;;;;;7.65;3.97;;;;;;;5.51;100.00;99306.25;5076015;28;20132;-70
2020/12/30 12:32:23;;;;;;;6.57;4.22;;;;;;;5.49;100.00;99316.97;5075702;28;20109;-70
2020/12/30 12:35:07;;;;;;;5.57;4.05;;;;;;;5.41;100.00;99314.16;5074676;28;20047;-70
2020/12/30 12:38:08;;;;;;;5.38;4.15;;;;;;;5.43;100.00;99314.88;5075809;28;20185;-71
2020/12/30 12:40:52;;;;;;;4.75;3.53;;;;;;;5.43;100.00;99321.97;5075632;28;20106;-71
2020/12/30 12:43:36;;;;;;;5.60;3.80;;;;;;;5.40;100.00;99315.16;5075592;28;20051;-70
2020/12/30 12:46:21;;;;;;;7.03;4.15;;;;;;;5.40;100.00;99315.16;5075671;28;20043;-68
2020/12/30 12:49:06;;;;;;;8.95;4.00;;;;;;;5.41;100.00;99319.44;5075520;28;20079;-70
2020/12/30 12:51:53;;;;;;;8.05;4.25;;;;;;;5.41;100.00;99322.09;5075368;28;20090;-71
2020/12/30 12:54:37;;;;;;;7.50;3.63;;;;;;;5.43;100.00;99328.06;5074329;28;20043;-70
2020/12/30 12:57:21;;;;;;;6.93;4.13;;;;;;;5.41;100.00;99327.38;5075147;28;20054;-70
2020/12/30 13:00:05;;;;;;;6.38;4.07;;;;;;;5.45;100.00;99333.25;5074546;28;20129;-71
2020/12/30 13:02:49;;;;;;;7.50;4.20;;;;;;;5.46;100.00;99335.72;5074389;28;20047;-71